sensor_id;sensor_type;location;lat;lon;timestamp;P1;durP1;ratioP1;P2;durP2;ratioP2
32214;SDS011;18708;53.124;23.190;2022-12-18T00:01:43;24.05;;;12.13;;
32214;SDS011;18708;53.124;23.190;2022-12-18T00:04:15;22.00;;;10.43;;
32214;SDS011;18708;53.124;23.190;2022-12-18T00:06:51;26.02;;;11.38;;
32214;SDS011;18708;53.124;23.190;2022-12-18T00:09:17;24.52;;;11.05;;
32214;SDS011;18708;53.124;23.190;2022-12-18T00:11:43;22.85;;;11.45;;
32214;SDS011;18708;53.124;23.190;2022-12-18T00:14:10;28.20;;;12.20;;
32214;SDS011;18708;53.124;23.190;2022-12-18T00:16:37;26.33;;;11.02;;
32214;SDS011;18708;53.124;23.190;2022-12-18T00:19:03;28.77;;;12.55;;
32214;SDS011;18708;53.124;23.190;2022-12-18T00:21:29;24.27;;;12.05;;
32214;SDS011;18708;53.124;23.190;2022-12-18T00:23:57;26.55;;;12.00;;
32214;SDS011;18708;53.124;23.190;2022-12-18T00:26:24;30.52;;;12.65;;
32214;SDS011;18708;53.124;23.190;2022-12-18T00:28:51;27.83;;;11.82;;
32214;SDS011;18708;53.124;23.190;2022-12-18T00:31:19;33.50;;;13.27;;
32214;SDS011;18708;53.124;23.190;2022-12-18T00:33:46;28.25;;;13.30;;
32214;SDS011;18708;53.124;23.190;2022-12-18T00:38:42;31.50;;;14.88;;
32214;SDS011;18708;53.124;23.190;2022-12-18T00:41:09;27.95;;;13.02;;
32214;SDS011;18708;53.124;23.190;2022-12-18T00:43:35;28.85;;;13.30;;
32214;SDS011;18708;53.124;23.190;2022-12-18T00:46:02;28.95;;;13.65;;
32214;SDS011;18708;53.124;23.190;2022-12-18T00:48:27;30.23;;;12.70;;
32214;SDS011;18708;53.124;23.190;2022-12-18T00:50:53;24.35;;;12.15;;
32214;SDS011;18708;53.124;23.190;2022-12-18T00:53:19;31.77;;;13.85;;
32214;SDS011;18708;53.124;23.190;2022-12-18T00:55:45;28.27;;;12.90;;
32214;SDS011;18708;53.124;23.190;2022-12-18T00:58:11;29.23;;;12.75;;
32214;SDS011;18708;53.124;23.190;2022-12-18T01:00:37;28.95;;;13.27;;
32214;SDS011;18708;53.124;23.190;2022-12-18T01:03:03;30.15;;;14.52;;
32214;SDS011;18708;53.124;23.190;2022-12-18T01:05:30;32.78;;;13.70;;
32214;SDS011;18708;53.124;23.190;2022-12-18T01:07:56;25.60;;;13.52;;
32214;SDS011;18708;53.124;23.190;2022-12-18T01:10:22;24.58;;;12.77;;
32214;SDS011;18708;53.124;23.190;2022-12-18T01:12:48;36.80;;;16.42;;
32214;SDS011;18708;53.124;23.190;2022-12-18T01:15:14;41.17;;;17.98;;
32214;SDS011;18708;53.124;23.190;2022-12-18T01:17:41;31.73;;;13.82;;
32214;SDS011;18708;53.124;23.190;2022-12-18T01:20:07;30.92;;;14.35;;
32214;SDS011;18708;53.124;23.190;2022-12-18T01:22:33;34.03;;;15.75;;
32214;SDS011;18708;53.124;23.190;2022-12-18T01:24:59;32.75;;;14.57;;
32214;SDS011;18708;53.124;23.190;2022-12-18T01:27:25;45.10;;;17.73;;
32214;SDS011;18708;53.124;23.190;2022-12-18T01:29:51;28.92;;;15.27;;
32214;SDS011;18708;53.124;23.190;2022-12-18T01:32:16;33.45;;;15.38;;
32214;SDS011;18708;53.124;23.190;2022-12-18T01:34:44;32.25;;;15.65;;
32214;SDS011;18708;53.124;23.190;2022-12-18T01:37:10;34.92;;;14.77;;
32214;SDS011;18708;53.124;23.190;2022-12-18T01:39:35;29.55;;;14.50;;
32214;SDS011;18708;53.124;23.190;2022-12-18T01:42:14;35.67;;;16.80;;
32214;SDS011;18708;53.124;23.190;2022-12-18T01:44:54;31.77;;;15.50;;
32214;SDS011;18708;53.124;23.190;2022-12-18T01:47:44;29.08;;;14.13;;
32214;SDS011;18708;53.124;23.190;2022-12-18T01:50:18;34.67;;;15.80;;
32214;SDS011;18708;53.124;23.190;2022-12-18T01:53:11;33.72;;;15.52;;
32214;SDS011;18708;53.124;23.190;2022-12-18T01:55:49;30.00;;;14.23;;
32214;SDS011;18708;53.124;23.190;2022-12-18T01:58:21;30.60;;;14.32;;
32214;SDS011;18708;53.124;23.190;2022-12-18T02:01:01;33.58;;;15.48;;
32214;SDS011;18708;53.124;23.190;2022-12-18T02:03:26;28.95;;;13.98;;
32214;SDS011;18708;53.124;23.190;2022-12-18T02:05:59;34.42;;;14.85;;
32214;SDS011;18708;53.124;23.190;2022-12-18T02:08:28;29.88;;;15.18;;
32214;SDS011;18708;53.124;23.190;2022-12-18T02:16:38;32.05;;;13.98;;
32214;SDS011;18708;53.124;23.190;2022-12-18T02:28:00;39.15;;;14.65;;
32214;SDS011;18708;53.124;23.190;2022-12-18T02:30:29;34.72;;;13.93;;
32214;SDS011;18708;53.124;23.190;2022-12-18T02:32:58;32.72;;;14.20;;
32214;SDS011;18708;53.124;23.190;2022-12-18T02:35:27;34.53;;;14.82;;
32214;SDS011;18708;53.124;23.190;2022-12-18T02:37:57;32.92;;;14.45;;
32214;SDS011;18708;53.124;23.190;2022-12-18T02:40:24;36.25;;;16.40;;
32214;SDS011;18708;53.124;23.190;2022-12-18T02:42:52;38.58;;;16.55;;
32214;SDS011;18708;53.124;23.190;2022-12-18T02:45:17;27.08;;;12.88;;
32214;SDS011;18708;53.124;23.190;2022-12-18T02:47:43;31.88;;;14.07;;
32214;SDS011;18708;53.124;23.190;2022-12-18T02:50:21;33.90;;;14.35;;
32214;SDS011;18708;53.124;23.190;2022-12-18T02:53:17;30.15;;;14.48;;
32214;SDS011;18708;53.124;23.190;2022-12-18T02:56:27;24.20;;;13.70;;
32214;SDS011;18708;53.124;23.190;2022-12-18T02:59:00;24.60;;;12.98;;
32214;SDS011;18708;53.124;23.190;2022-12-18T03:01:34;26.05;;;12.48;;
32214;SDS011;18708;53.124;23.190;2022-12-18T03:06:42;27.63;;;13.50;;
32214;SDS011;18708;53.124;23.190;2022-12-18T03:09:14;33.22;;;14.57;;
32214;SDS011;18708;53.124;23.190;2022-12-18T03:11:46;31.25;;;13.90;;
32214;SDS011;18708;53.124;23.190;2022-12-18T03:14:39;33.83;;;13.15;;
32214;SDS011;18708;53.124;23.190;2022-12-18T03:17:08;24.48;;;12.98;;
32214;SDS011;18708;53.124;23.190;2022-12-18T03:19:40;30.45;;;13.27;;
32214;SDS011;18708;53.124;23.190;2022-12-18T03:22:07;24.63;;;12.48;;
32214;SDS011;18708;53.124;23.190;2022-12-18T03:24:34;33.33;;;14.60;;
32214;SDS011;18708;53.124;23.190;2022-12-18T03:27:05;27.92;;;13.50;;
32214;SDS011;18708;53.124;23.190;2022-12-18T03:29:38;28.17;;;13.40;;
32214;SDS011;18708;53.124;23.190;2022-12-18T03:32:12;31.08;;;12.57;;
32214;SDS011;18708;53.124;23.190;2022-12-18T03:34:42;26.98;;;13.40;;
32214;SDS011;18708;53.124;23.190;2022-12-18T03:37:12;31.92;;;14.18;;
32214;SDS011;18708;53.124;23.190;2022-12-18T03:39:38;27.45;;;11.63;;
32214;SDS011;18708;53.124;23.190;2022-12-18T03:47:32;28.65;;;12.57;;
32214;SDS011;18708;53.124;23.190;2022-12-18T03:50:20;24.67;;;12.93;;
32214;SDS011;18708;53.124;23.190;2022-12-18T03:52:56;29.38;;;11.63;;
32214;SDS011;18708;53.124;23.190;2022-12-18T03:55:34;26.42;;;12.70;;
32214;SDS011;18708;53.124;23.190;2022-12-18T03:58:02;30.55;;;12.85;;
32214;SDS011;18708;53.124;23.190;2022-12-18T04:00:30;31.17;;;13.68;;
32214;SDS011;18708;53.124;23.190;2022-12-18T04:02:56;28.52;;;13.02;;
32214;SDS011;18708;53.124;23.190;2022-12-18T04:05:25;28.38;;;12.18;;
32214;SDS011;18708;53.124;23.190;2022-12-18T04:07:53;34.08;;;13.35;;
32214;SDS011;18708;53.124;23.190;2022-12-18T04:10:22;25.20;;;10.90;;
32214;SDS011;18708;53.124;23.190;2022-12-18T04:12:48;23.92;;;10.93;;
32214;SDS011;18708;53.124;23.190;2022-12-18T04:15:14;31.05;;;12.75;;
32214;SDS011;18708;53.124;23.190;2022-12-18T04:17:46;28.23;;;12.05;;
32214;SDS011;18708;53.124;23.190;2022-12-18T04:20:13;25.85;;;12.65;;
32214;SDS011;18708;53.124;23.190;2022-12-18T04:22:39;30.05;;;12.88;;
32214;SDS011;18708;53.124;23.190;2022-12-18T04:25:05;38.90;;;14.05;;
32214;SDS011;18708;53.124;23.190;2022-12-18T04:27:30;27.38;;;13.77;;
32214;SDS011;18708;53.124;23.190;2022-12-18T04:29:56;26.92;;;12.50;;
32214;SDS011;18708;53.124;23.190;2022-12-18T04:32:22;28.40;;;12.85;;
32214;SDS011;18708;53.124;23.190;2022-12-18T04:34:47;28.75;;;14.50;;
32214;SDS011;18708;53.124;23.190;2022-12-18T04:37:13;25.38;;;12.55;;
32214;SDS011;18708;53.124;23.190;2022-12-18T04:39:39;33.13;;;13.40;;
32214;SDS011;18708;53.124;23.190;2022-12-18T04:42:04;27.20;;;12.60;;
32214;SDS011;18708;53.124;23.190;2022-12-18T04:44:30;28.52;;;13.15;;
32214;SDS011;18708;53.124;23.190;2022-12-18T04:46:56;28.52;;;12.93;;
32214;SDS011;18708;53.124;23.190;2022-12-18T04:49:21;26.95;;;12.82;;
32214;SDS011;18708;53.124;23.190;2022-12-18T04:51:47;30.40;;;13.20;;
32214;SDS011;18708;53.124;23.190;2022-12-18T04:54:12;31.23;;;12.70;;
32214;SDS011;18708;53.124;23.190;2022-12-18T04:56:38;27.70;;;12.52;;
32214;SDS011;18708;53.124;23.190;2022-12-18T04:59:04;28.15;;;13.65;;
32214;SDS011;18708;53.124;23.190;2022-12-18T05:01:33;29.90;;;12.13;;
32214;SDS011;18708;53.124;23.190;2022-12-18T05:03:59;22.27;;;10.48;;
32214;SDS011;18708;53.124;23.190;2022-12-18T05:06:25;25.75;;;11.20;;
32214;SDS011;18708;53.124;23.190;2022-12-18T05:08:50;27.30;;;12.07;;
32214;SDS011;18708;53.124;23.190;2022-12-18T05:11:16;27.73;;;11.82;;
32214;SDS011;18708;53.124;23.190;2022-12-18T05:13:42;28.55;;;12.93;;
32214;SDS011;18708;53.124;23.190;2022-12-18T05:16:09;29.88;;;12.32;;
32214;SDS011;18708;53.124;23.190;2022-12-18T05:18:35;30.13;;;13.63;;
32214;SDS011;18708;53.124;23.190;2022-12-18T05:21:00;28.95;;;12.55;;
32214;SDS011;18708;53.124;23.190;2022-12-18T05:23:26;30.98;;;13.40;;
32214;SDS011;18708;53.124;23.190;2022-12-18T05:25:53;32.22;;;13.43;;
32214;SDS011;18708;53.124;23.190;2022-12-18T05:28:20;31.63;;;12.88;;
32214;SDS011;18708;53.124;23.190;2022-12-18T05:30:47;30.40;;;12.85;;
32214;SDS011;18708;53.124;23.190;2022-12-18T05:33:15;46.67;;;22.35;;
32214;SDS011;18708;53.124;23.190;2022-12-18T05:35:40;89.03;;;34.70;;
32214;SDS011;18708;53.124;23.190;2022-12-18T05:38:06;61.80;;;33.35;;
32214;SDS011;18708;53.124;23.190;2022-12-18T05:40:31;47.42;;;18.05;;
32214;SDS011;18708;53.124;23.190;2022-12-18T05:42:57;96.65;;;30.38;;
32214;SDS011;18708;53.124;23.190;2022-12-18T05:45:23;72.43;;;26.88;;
32214;SDS011;18708;53.124;23.190;2022-12-18T05:47:48;85.20;;;30.75;;
32214;SDS011;18708;53.124;23.190;2022-12-18T05:50:14;36.58;;;14.63;;
32214;SDS011;18708;53.124;23.190;2022-12-18T05:52:42;34.90;;;15.57;;
32214;SDS011;18708;53.124;23.190;2022-12-18T05:55:07;28.23;;;12.75;;
32214;SDS011;18708;53.124;23.190;2022-12-18T05:57:33;63.10;;;21.75;;
32214;SDS011;18708;53.124;23.190;2022-12-18T05:59:59;43.78;;;17.20;;
32214;SDS011;18708;53.124;23.190;2022-12-18T06:02:24;80.90;;;30.42;;
32214;SDS011;18708;53.124;23.190;2022-12-18T06:04:50;41.28;;;16.55;;
32214;SDS011;18708;53.124;23.190;2022-12-18T06:07:15;34.03;;;15.32;;
32214;SDS011;18708;53.124;23.190;2022-12-18T06:09:41;27.55;;;13.00;;
32214;SDS011;18708;53.124;23.190;2022-12-18T06:12:06;34.70;;;15.20;;
32214;SDS011;18708;53.124;23.190;2022-12-18T06:14:32;43.10;;;18.73;;
32214;SDS011;18708;53.124;23.190;2022-12-18T06:16:58;40.53;;;17.08;;
32214;SDS011;18708;53.124;23.190;2022-12-18T06:19:23;77.47;;;30.08;;
32214;SDS011;18708;53.124;23.190;2022-12-18T06:21:49;50.33;;;21.15;;
32214;SDS011;18708;53.124;23.190;2022-12-18T06:24:15;89.70;;;37.70;;
32214;SDS011;18708;53.124;23.190;2022-12-18T06:26:40;73.63;;;33.47;;
32214;SDS011;18708;53.124;23.190;2022-12-18T06:29:06;61.05;;;21.83;;
32214;SDS011;18708;53.124;23.190;2022-12-18T06:31:35;61.22;;;23.63;;
32214;SDS011;18708;53.124;23.190;2022-12-18T06:34:03;72.80;;;28.20;;
32214;SDS011;18708;53.124;23.190;2022-12-18T06:36:30;42.92;;;18.48;;
32214;SDS011;18708;53.124;23.190;2022-12-18T06:38:56;63.25;;;29.23;;
32214;SDS011;18708;53.124;23.190;2022-12-18T06:41:22;76.57;;;34.30;;
32214;SDS011;18708;53.124;23.190;2022-12-18T06:43:48;60.78;;;26.20;;
32214;SDS011;18708;53.124;23.190;2022-12-18T06:46:16;65.80;;;25.00;;
32214;SDS011;18708;53.124;23.190;2022-12-18T06:48:42;107.30;;;43.47;;
32214;SDS011;18708;53.124;23.190;2022-12-18T06:51:07;67.75;;;25.38;;
32214;SDS011;18708;53.124;23.190;2022-12-18T06:53:33;106.40;;;49.17;;
32214;SDS011;18708;53.124;23.190;2022-12-18T06:56:02;89.00;;;36.45;;
32214;SDS011;18708;53.124;23.190;2022-12-18T06:58:31;47.92;;;20.77;;
32214;SDS011;18708;53.124;23.190;2022-12-18T07:01:01;51.58;;;20.17;;
32214;SDS011;18708;53.124;23.190;2022-12-18T07:03:28;81.38;;;28.92;;
32214;SDS011;18708;53.124;23.190;2022-12-18T07:05:53;62.47;;;28.42;;
32214;SDS011;18708;53.124;23.190;2022-12-18T07:08:19;45.65;;;19.27;;
32214;SDS011;18708;53.124;23.190;2022-12-18T07:10:44;81.18;;;35.13;;
32214;SDS011;18708;53.124;23.190;2022-12-18T07:13:10;75.03;;;29.88;;
32214;SDS011;18708;53.124;23.190;2022-12-18T07:15:38;95.22;;;34.75;;
32214;SDS011;18708;53.124;23.190;2022-12-18T07:18:03;64.95;;;28.92;;
32214;SDS011;18708;53.124;23.190;2022-12-18T07:20:29;37.20;;;15.65;;
32214;SDS011;18708;53.124;23.190;2022-12-18T07:22:55;47.58;;;19.63;;
32214;SDS011;18708;53.124;23.190;2022-12-18T07:25:20;37.42;;;16.40;;
32214;SDS011;18708;53.124;23.190;2022-12-18T07:27:46;36.10;;;14.70;;
32214;SDS011;18708;53.124;23.190;2022-12-18T07:30:11;50.33;;;24.08;;
32214;SDS011;18708;53.124;23.190;2022-12-18T07:32:37;64.88;;;27.13;;
32214;SDS011;18708;53.124;23.190;2022-12-18T07:35:04;56.67;;;25.13;;
32214;SDS011;18708;53.124;23.190;2022-12-18T07:37:30;91.05;;;37.55;;
32214;SDS011;18708;53.124;23.190;2022-12-18T07:39:55;45.88;;;20.20;;
32214;SDS011;18708;53.124;23.190;2022-12-18T07:42:21;59.45;;;24.85;;
32214;SDS011;18708;53.124;23.190;2022-12-18T07:44:57;34.13;;;16.15;;
32214;SDS011;18708;53.124;23.190;2022-12-18T07:47:23;64.53;;;26.10;;
32214;SDS011;18708;53.124;23.190;2022-12-18T07:49:49;45.30;;;19.00;;
32214;SDS011;18708;53.124;23.190;2022-12-18T07:52:14;41.08;;;18.35;;
32214;SDS011;18708;53.124;23.190;2022-12-18T07:54:40;48.58;;;22.15;;
32214;SDS011;18708;53.124;23.190;2022-12-18T07:57:08;176.90;;;69.47;;
32214;SDS011;18708;53.124;23.190;2022-12-18T07:59:34;86.78;;;36.65;;
32214;SDS011;18708;53.124;23.190;2022-12-18T08:02:00;42.95;;;19.20;;
32214;SDS011;18708;53.124;23.190;2022-12-18T08:04:26;37.80;;;19.25;;
32214;SDS011;18708;53.124;23.190;2022-12-18T08:06:52;60.58;;;26.70;;
32214;SDS011;18708;53.124;23.190;2022-12-18T08:09:17;40.47;;;17.75;;
32214;SDS011;18708;53.124;23.190;2022-12-18T08:11:43;35.78;;;15.00;;
32214;SDS011;18708;53.124;23.190;2022-12-18T08:14:09;41.70;;;16.55;;
32214;SDS011;18708;53.124;23.190;2022-12-18T08:16:35;44.65;;;18.13;;
32214;SDS011;18708;53.124;23.190;2022-12-18T08:19:01;47.92;;;20.60;;
32214;SDS011;18708;53.124;23.190;2022-12-18T08:21:30;45.65;;;20.58;;
32214;SDS011;18708;53.124;23.190;2022-12-18T08:23:57;54.08;;;22.40;;
32214;SDS011;18708;53.124;23.190;2022-12-18T08:26:24;55.45;;;22.13;;
32214;SDS011;18708;53.124;23.190;2022-12-18T08:28:53;47.13;;;21.92;;
32214;SDS011;18708;53.124;23.190;2022-12-18T08:31:20;50.03;;;22.90;;
32214;SDS011;18708;53.124;23.190;2022-12-18T08:33:48;49.55;;;20.38;;
32214;SDS011;18708;53.124;23.190;2022-12-18T08:36:15;91.05;;;41.40;;
32214;SDS011;18708;53.124;23.190;2022-12-18T08:38:41;55.38;;;25.95;;
32214;SDS011;18708;53.124;23.190;2022-12-18T08:41:07;55.50;;;25.92;;
32214;SDS011;18708;53.124;23.190;2022-12-18T08:43:35;85.13;;;36.83;;
32214;SDS011;18708;53.124;23.190;2022-12-18T08:46:20;51.65;;;23.33;;
32214;SDS011;18708;53.124;23.190;2022-12-18T08:48:50;44.92;;;22.42;;
32214;SDS011;18708;53.124;23.190;2022-12-18T08:51:16;95.50;;;39.05;;
32214;SDS011;18708;53.124;23.190;2022-12-18T08:53:42;59.13;;;25.15;;
32214;SDS011;18708;53.124;23.190;2022-12-18T08:56:09;55.75;;;23.95;;
32214;SDS011;18708;53.124;23.190;2022-12-18T08:58:35;48.53;;;22.30;;
32214;SDS011;18708;53.124;23.190;2022-12-18T09:01:01;47.22;;;20.60;;
32214;SDS011;18708;53.124;23.190;2022-12-18T09:03:28;64.25;;;27.05;;
32214;SDS011;18708;53.124;23.190;2022-12-18T09:05:53;72.95;;;30.58;;
32214;SDS011;18708;53.124;23.190;2022-12-18T09:08:19;49.67;;;22.05;;
32214;SDS011;18708;53.124;23.190;2022-12-18T09:10:45;48.00;;;20.52;;
32214;SDS011;18708;53.124;23.190;2022-12-18T09:13:12;46.13;;;20.70;;
32214;SDS011;18708;53.124;23.190;2022-12-18T09:15:47;48.33;;;21.58;;
32214;SDS011;18708;53.124;23.190;2022-12-18T09:18:16;43.90;;;19.67;;
32214;SDS011;18708;53.124;23.190;2022-12-18T09:20:42;43.08;;;18.55;;
32214;SDS011;18708;53.124;23.190;2022-12-18T09:23:09;41.17;;;19.25;;
32214;SDS011;18708;53.124;23.190;2022-12-18T09:25:35;36.25;;;16.92;;
32214;SDS011;18708;53.124;23.190;2022-12-18T09:28:03;38.58;;;16.75;;
32214;SDS011;18708;53.124;23.190;2022-12-18T09:30:49;35.58;;;17.60;;
32214;SDS011;18708;53.124;23.190;2022-12-18T09:33:15;41.78;;;19.90;;
32214;SDS011;18708;53.124;23.190;2022-12-18T09:35:42;40.80;;;17.42;;
32214;SDS011;18708;53.124;23.190;2022-12-18T09:38:10;37.25;;;17.20;;
32214;SDS011;18708;53.124;23.190;2022-12-18T09:40:45;47.45;;;19.80;;
32214;SDS011;18708;53.124;23.190;2022-12-18T09:43:19;43.40;;;18.83;;
32214;SDS011;18708;53.124;23.190;2022-12-18T09:45:51;42.88;;;19.55;;
32214;SDS011;18708;53.124;23.190;2022-12-18T09:48:28;38.40;;;17.00;;
32214;SDS011;18708;53.124;23.190;2022-12-18T09:51:13;31.00;;;14.30;;
32214;SDS011;18708;53.124;23.190;2022-12-18T09:53:46;53.13;;;24.30;;
32214;SDS011;18708;53.124;23.190;2022-12-18T09:56:17;42.17;;;18.20;;
32214;SDS011;18708;53.124;23.190;2022-12-18T09:58:50;43.85;;;19.40;;
32214;SDS011;18708;53.124;23.190;2022-12-18T10:01:26;34.75;;;15.35;;
32214;SDS011;18708;53.124;23.190;2022-12-18T10:03:54;36.45;;;16.88;;
32214;SDS011;18708;53.124;23.190;2022-12-18T10:12:08;40.13;;;16.35;;
32214;SDS011;18708;53.124;23.190;2022-12-18T10:17:23;41.25;;;19.23;;
32214;SDS011;18708;53.124;23.190;2022-12-18T10:20:16;44.83;;;18.45;;
32214;SDS011;18708;53.124;23.190;2022-12-18T10:22:57;51.65;;;20.73;;
32214;SDS011;18708;53.124;23.190;2022-12-18T10:28:39;39.67;;;17.30;;
32214;SDS011;18708;53.124;23.190;2022-12-18T10:31:06;47.92;;;21.00;;
32214;SDS011;18708;53.124;23.190;2022-12-18T10:33:39;37.92;;;16.80;;
32214;SDS011;18708;53.124;23.190;2022-12-18T10:36:06;42.30;;;18.90;;
32214;SDS011;18708;53.124;23.190;2022-12-18T10:38:32;54.38;;;23.55;;
32214;SDS011;18708;53.124;23.190;2022-12-18T10:43:42;44.95;;;19.73;;
32214;SDS011;18708;53.124;23.190;2022-12-18T10:46:12;45.53;;;22.00;;
32214;SDS011;18708;53.124;23.190;2022-12-18T10:48:47;43.63;;;20.48;;
32214;SDS011;18708;53.124;23.190;2022-12-18T10:53:51;52.00;;;22.80;;
32214;SDS011;18708;53.124;23.190;2022-12-18T10:56:41;45.65;;;21.50;;
32214;SDS011;18708;53.124;23.190;2022-12-18T10:59:08;62.47;;;31.10;;
32214;SDS011;18708;53.124;23.190;2022-12-18T11:04:20;42.13;;;20.50;;
32214;SDS011;18708;53.124;23.190;2022-12-18T11:09:21;49.90;;;23.80;;
32214;SDS011;18708;53.124;23.190;2022-12-18T11:11:49;44.58;;;21.13;;
32214;SDS011;18708;53.124;23.190;2022-12-18T11:14:20;54.42;;;26.65;;
32214;SDS011;18708;53.124;23.190;2022-12-18T11:16:54;46.70;;;23.05;;
32214;SDS011;18708;53.124;23.190;2022-12-18T11:21:51;48.70;;;23.17;;
32214;SDS011;18708;53.124;23.190;2022-12-18T11:24:30;49.08;;;22.73;;
32214;SDS011;18708;53.124;23.190;2022-12-18T11:26:59;58.95;;;29.48;;
32214;SDS011;18708;53.124;23.190;2022-12-18T11:29:32;54.28;;;27.00;;
32214;SDS011;18708;53.124;23.190;2022-12-18T11:34:39;54.47;;;26.63;;
32214;SDS011;18708;53.124;23.190;2022-12-18T11:37:09;46.63;;;22.25;;
32214;SDS011;18708;53.124;23.190;2022-12-18T11:39:42;32.45;;;17.75;;
32214;SDS011;18708;53.124;23.190;2022-12-18T11:45:16;71.70;;;33.08;;
32214;SDS011;18708;53.124;23.190;2022-12-18T11:47:52;39.40;;;20.05;;
32214;SDS011;18708;53.124;23.190;2022-12-18T11:50:56;42.33;;;23.73;;
32214;SDS011;18708;53.124;23.190;2022-12-18T11:53:24;37.78;;;20.92;;
32214;SDS011;18708;53.124;23.190;2022-12-18T12:17:45;45.30;;;23.40;;
32214;SDS011;18708;53.124;23.190;2022-12-18T12:20:20;46.38;;;23.38;;
32214;SDS011;18708;53.124;23.190;2022-12-18T12:25:49;58.65;;;27.17;;
32214;SDS011;18708;53.124;23.190;2022-12-18T12:29:00;45.78;;;22.38;;
32214;SDS011;18708;53.124;23.190;2022-12-18T12:39:25;57.40;;;26.10;;
32214;SDS011;18708;53.124;23.190;2022-12-18T12:41:55;51.33;;;27.27;;
32214;SDS011;18708;53.124;23.190;2022-12-18T12:44:44;51.58;;;25.30;;
32214;SDS011;18708;53.124;23.190;2022-12-18T12:47:14;46.17;;;22.10;;
32214;SDS011;18708;53.124;23.190;2022-12-18T12:50:03;53.97;;;24.77;;
32214;SDS011;18708;53.124;23.190;2022-12-18T12:52:41;47.65;;;23.23;;
32214;SDS011;18708;53.124;23.190;2022-12-18T12:55:23;52.78;;;23.90;;
32214;SDS011;18708;53.124;23.190;2022-12-18T12:58:00;52.00;;;22.75;;
32214;SDS011;18708;53.124;23.190;2022-12-18T13:00:37;50.03;;;23.58;;
32214;SDS011;18708;53.124;23.190;2022-12-18T13:06:00;52.75;;;24.35;;
32214;SDS011;18708;53.124;23.190;2022-12-18T13:08:50;65.85;;;28.42;;
32214;SDS011;18708;53.124;23.190;2022-12-18T13:14:35;66.22;;;29.45;;
32214;SDS011;18708;53.124;23.190;2022-12-18T13:20:03;72.80;;;31.50;;
32214;SDS011;18708;53.124;23.190;2022-12-18T13:22:46;72.63;;;34.25;;
32214;SDS011;18708;53.124;23.190;2022-12-18T13:28:13;95.88;;;38.67;;
32214;SDS011;18708;53.124;23.190;2022-12-18T13:30:41;77.60;;;33.90;;
32214;SDS011;18708;53.124;23.190;2022-12-18T13:40:56;69.53;;;30.88;;
32214;SDS011;18708;53.124;23.190;2022-12-18T13:43:24;70.10;;;30.92;;
32214;SDS011;18708;53.124;23.190;2022-12-18T13:46:00;67.80;;;31.98;;
32214;SDS011;18708;53.124;23.190;2022-12-18T13:48:32;62.60;;;29.42;;
32214;SDS011;18708;53.124;23.190;2022-12-18T13:53:33;80.28;;;35.80;;
32214;SDS011;18708;53.124;23.190;2022-12-18T13:56:03;79.70;;;34.08;;
32214;SDS011;18708;53.124;23.190;2022-12-18T13:58:29;160.38;;;59.63;;
32214;SDS011;18708;53.124;23.190;2022-12-18T14:00:54;115.45;;;47.00;;
32214;SDS011;18708;53.124;23.190;2022-12-18T14:03:21;77.78;;;37.38;;
32214;SDS011;18708;53.124;23.190;2022-12-18T14:06:01;104.88;;;45.33;;
32214;SDS011;18708;53.124;23.190;2022-12-18T14:08:36;76.82;;;31.90;;
32214;SDS011;18708;53.124;23.190;2022-12-18T14:11:04;80.60;;;37.03;;
32214;SDS011;18708;53.124;23.190;2022-12-18T14:13:33;83.53;;;36.33;;
32214;SDS011;18708;53.124;23.190;2022-12-18T14:16:03;81.00;;;35.72;;
32214;SDS011;18708;53.124;23.190;2022-12-18T14:21:26;83.60;;;36.42;;
32214;SDS011;18708;53.124;23.190;2022-12-18T14:26:52;87.93;;;38.88;;
32214;SDS011;18708;53.124;23.190;2022-12-18T14:29:19;86.40;;;37.42;;
32214;SDS011;18708;53.124;23.190;2022-12-18T14:31:45;100.07;;;42.47;;
32214;SDS011;18708;53.124;23.190;2022-12-18T14:34:17;110.18;;;44.97;;
32214;SDS011;18708;53.124;23.190;2022-12-18T14:36:53;108.07;;;46.92;;
32214;SDS011;18708;53.124;23.190;2022-12-18T14:39:20;102.22;;;41.83;;
32214;SDS011;18708;53.124;23.190;2022-12-18T14:41:48;96.72;;;44.17;;
32214;SDS011;18708;53.124;23.190;2022-12-18T14:44:14;98.63;;;41.42;;
32214;SDS011;18708;53.124;23.190;2022-12-18T14:46:43;99.45;;;41.58;;
32214;SDS011;18708;53.124;23.190;2022-12-18T14:49:24;98.20;;;42.30;;
32214;SDS011;18708;53.124;23.190;2022-12-18T14:51:55;93.20;;;43.13;;
32214;SDS011;18708;53.124;23.190;2022-12-18T14:54:26;88.82;;;38.03;;
32214;SDS011;18708;53.124;23.190;2022-12-18T14:57:01;95.90;;;42.35;;
32214;SDS011;18708;53.124;23.190;2022-12-18T14:59:38;110.63;;;42.97;;
32214;SDS011;18708;53.124;23.190;2022-12-18T15:02:17;145.98;;;63.80;;
32214;SDS011;18708;53.124;23.190;2022-12-18T15:04:46;126.32;;;52.75;;
32214;SDS011;18708;53.124;23.190;2022-12-18T15:07:22;103.65;;;42.03;;
32214;SDS011;18708;53.124;23.190;2022-12-18T15:12:46;133.80;;;49.22;;
32214;SDS011;18708;53.124;23.190;2022-12-18T15:31:20;150.20;;;62.63;;
32214;SDS011;18708;53.124;23.190;2022-12-18T15:36:24;100.53;;;41.67;;
32214;SDS011;18708;53.124;23.190;2022-12-18T15:38:53;113.18;;;48.45;;
32214;SDS011;18708;53.124;23.190;2022-12-18T15:41:20;112.00;;;48.20;;
32214;SDS011;18708;53.124;23.190;2022-12-18T15:43:47;114.90;;;47.15;;
32214;SDS011;18708;53.124;23.190;2022-12-18T15:46:19;119.65;;;47.33;;
32214;SDS011;18708;53.124;23.190;2022-12-18T15:48:47;115.03;;;47.10;;
32214;SDS011;18708;53.124;23.190;2022-12-18T15:53:42;118.13;;;48.38;;
32214;SDS011;18708;53.124;23.190;2022-12-18T15:56:10;125.95;;;48.97;;
32214;SDS011;18708;53.124;23.190;2022-12-18T15:58:55;133.85;;;52.90;;
32214;SDS011;18708;53.124;23.190;2022-12-18T16:01:21;152.50;;;61.83;;
32214;SDS011;18708;53.124;23.190;2022-12-18T16:03:49;165.10;;;64.82;;
32214;SDS011;18708;53.124;23.190;2022-12-18T16:06:14;197.57;;;73.93;;
32214;SDS011;18708;53.124;23.190;2022-12-18T16:08:40;148.77;;;58.63;;
32214;SDS011;18708;53.124;23.190;2022-12-18T16:11:05;146.60;;;56.20;;
32214;SDS011;18708;53.124;23.190;2022-12-18T16:14:03;138.85;;;50.45;;
32214;SDS011;18708;53.124;23.190;2022-12-18T16:16:41;139.70;;;55.95;;
32214;SDS011;18708;53.124;23.190;2022-12-18T16:19:07;134.10;;;53.40;;
32214;SDS011;18708;53.124;23.190;2022-12-18T16:21:32;129.57;;;55.63;;
32214;SDS011;18708;53.124;23.190;2022-12-18T16:23:58;164.40;;;62.40;;
32214;SDS011;18708;53.124;23.190;2022-12-18T16:26:24;144.85;;;60.20;;
32214;SDS011;18708;53.124;23.190;2022-12-18T16:28:50;155.73;;;60.25;;
32214;SDS011;18708;53.124;23.190;2022-12-18T16:31:15;159.35;;;61.67;;
32214;SDS011;18708;53.124;23.190;2022-12-18T16:33:41;135.45;;;60.25;;
32214;SDS011;18708;53.124;23.190;2022-12-18T16:36:07;156.30;;;58.17;;
32214;SDS011;18708;53.124;23.190;2022-12-18T16:38:33;141.05;;;56.58;;
32214;SDS011;18708;53.124;23.190;2022-12-18T16:40:58;158.20;;;59.35;;
32214;SDS011;18708;53.124;23.190;2022-12-18T16:43:50;148.82;;;58.53;;